Time;durP1;ratioP1;P1;durP2;ratioP2;P2;SDS_P1;SDS_P2;PMS_P1;PMS_P2;Temp;Humidity;BMP_temperature;BMP_pressure;BME280_temperature;BME280_humidity;BME280_pressure;Samples;Min_cycle;Max_cycle;Signal;HPM_P1;HPM_P2
2022/08/03 00:00:46;;;;;;;16.85;9.45;;;;;;;17.43;63.50;100008.00;4840628;29;20046;-83
2022/08/03 00:03:13;;;;;;;19.30;9.90;;;;;;;17.46;63.66;100023.66;4832000;29;20074;-79
2022/08/03 00:05:39;;;;;;;21.05;8.68;;;;;;;17.37;63.87;100011.69;4847710;29;20050;-81
2022/08/03 00:08:05;;;;;;;21.95;9.38;;;;;;;17.34;63.76;100014.41;4852943;29;20315;-80
2022/08/03 00:10:31;;;;;;;17.55;8.88;;;;;;;17.41;63.81;100029.06;4851809;29;20053;-78
2022/08/03 00:12:57;;;;;;;16.33;8.45;;;;;;;17.40;63.96;100035.25;4837130;29;20101;-80
2022/08/03 00:15:23;;;;;;;17.40;9.10;;;;;;;17.30;63.84;100029.44;4846305;29;20072;-80
2022/08/03 00:17:49;;;;;;;13.93;9.00;;;;;;;17.37;63.80;100037.13;4837155;29;20046;-78
2022/08/03 00:20:16;;;;;;;20.60;10.57;;;;;;;17.26;64.08;100030.44;4859709;29;20066;-80
2022/08/03 00:22:42;;;;;;;20.52;12.45;;;;;;;17.23;64.01;100013.91;4813946;29;20518;-82
2022/08/03 00:25:08;;;;;;;18.58;10.52;;;;;;;17.28;64.14;100022.53;4840902;29;20137;-81
2022/08/03 00:27:34;;;;;;;19.50;9.63;;;;;;;17.34;64.27;100022.28;4823918;29;20045;-81
2022/08/03 00:30:00;;;;;;;16.38;9.32;;;;;;;17.43;64.18;100035.16;4839579;29;20045;-78
2022/08/03 00:32:27;;;;;;;22.48;9.65;;;;;;;17.46;63.88;100028.91;4839422;29;20481;-81
2022/08/03 00:34:53;;;;;;;21.92;9.38;;;;;;;17.48;64.22;100026.25;4823774;29;20140;-80
2022/08/03 00:37:19;;;;;;;18.40;9.40;;;;;;;17.56;64.04;100032.09;4839853;29;20076;-83
2022/08/03 00:39:46;;;;;;;16.02;9.13;;;;;;;17.64;64.31;100030.06;4843948;29;20046;-80
2022/08/03 00:42:13;;;;;;;14.80;9.02;;;;;;;17.63;63.96;100015.19;4844252;29;20042;-81
2022/08/03 00:44:41;;;;;;;18.02;9.00;;;;;;;17.75;64.06;100027.94;4859048;29;20025;-80
2022/08/03 00:47:10;;;;;;;18.83;9.43;;;;;;;17.73;64.01;100015.72;4858965;29;20132;-80
2022/08/03 00:49:38;;;;;;;18.80;9.23;;;;;;;17.80;64.01;100019.88;4842458;29;20111;-81
2022/08/03 00:52:04;;;;;;;17.08;8.95;;;;;;;17.87;63.85;100020.50;4845404;29;20037;-79
2022/08/03 00:54:32;;;;;;;21.33;9.10;;;;;;;17.88;63.76;100017.81;4841924;29;20127;-80
2022/08/03 00:56:58;;;;;;;23.58;9.65;;;;;;;17.82;63.86;100017.16;4843219;29;20053;-78
2022/08/03 00:59:24;;;;;;;19.80;9.05;;;;;;;17.88;64.03;100019.59;4847384;29;20122;-83
2022/08/03 01:01:52;;;;;;;18.83;9.30;;;;;;;17.82;64.05;100014.53;4840573;29;20140;-80
2022/08/03 01:04:18;;;;;;;23.40;9.63;;;;;;;17.83;63.75;100029.41;4840033;29;20125;-79
2022/08/03 01:07:11;;;;;;;19.52;8.77;;;;;;;17.77;64.11;100026.09;4839906;29;20081;-79
2022/08/03 01:09:52;;;;;;;14.40;8.90;;;;;;;17.57;64.28;100002.25;4841604;29;20065;-79
2022/08/03 01:12:31;;;;;;;20.05;8.98;;;;;;;17.64;64.00;100022.16;4842647;29;20050;-79
2022/08/03 01:15:22;;;;;;;16.17;9.05;;;;;;;17.56;64.02;100018.94;4842718;29;20110;-80
2022/08/03 01:17:55;;;;;;;14.45;8.63;;;;;;;17.50;64.77;100019.16;4814478;29;20127;-82
2022/08/03 01:20:25;;;;;;;16.35;8.82;;;;;;;17.46;64.69;100019.28;4842544;29;20094;-82
2022/08/03 01:23:17;;;;;;;19.92;9.57;;;;;;;17.50;64.89;100016.53;4843129;29;20110;-81
2022/08/03 01:25:43;;;;;;;15.70;9.18;;;;;;;17.51;65.13;100016.47;4848876;29;20395;-79
2022/08/03 01:28:42;;;;;;;17.70;8.95;;;;;;;17.45;65.13;100014.91;4854140;29;20145;-78
2022/08/03 01:31:12;;;;;;;22.40;10.18;;;;;;;17.50;65.22;100017.38;4827076;29;20108;-82
2022/08/03 01:33:42;;;;;;;19.27;9.90;;;;;;;17.49;64.81;100014.81;4830064;29;20408;-81
2022/08/03 01:36:13;;;;;;;17.27;9.40;;;;;;;17.38;65.24;100005.50;4828416;29;20041;-82
2022/08/03 01:38:48;;;;;;;15.35;8.15;;;;;;;17.37;65.57;100008.19;4842364;29;20056;-82
2022/08/03 01:41:21;;;;;;;15.38;9.32;;;;;;;17.41;65.11;100015.09;4843093;29;20076;-81
2022/08/03 01:43:49;;;;;;;13.90;8.65;;;;;;;17.43;65.48;100018.53;4843120;29;20081;-82
2022/08/03 01:46:19;;;;;;;16.05;9.23;;;;;;;17.42;65.19;100022.06;4843581;29;20041;-82
2022/08/03 01:48:48;;;;;;;13.15;9.35;;;;;;;17.52;65.04;100023.44;4841620;29;20072;-79
2022/08/03 01:51:18;;;;;;;20.08;10.05;;;;;;;17.50;65.27;100017.38;4854541;29;20450;-79
2022/08/03 01:53:47;;;;;;;18.85;10.00;;;;;;;17.50;65.13;100024.44;4866819;29;20098;-78
2022/08/03 01:56:15;;;;;;;14.18;9.45;;;;;;;17.51;65.29;100027.00;4867113;29;20033;-79
2022/08/03 01:58:44;;;;;;;15.88;9.43;;;;;;;17.32;65.20;99995.22;4842320;29;20077;-77
2022/08/03 02:01:12;;;;;;;15.23;8.95;;;;;;;17.49;65.45;100025.34;4843882;29;20045;-80
2022/08/03 02:03:41;;;;;;;16.83;10.27;;;;;;;17.57;65.32;100029.44;4844330;29;20046;-79
2022/08/03 02:06:10;;;;;;;22.67;9.38;;;;;;;17.48;65.25;100015.72;4827257;29;20494;-81
2022/08/03 02:08:39;;;;;;;16.45;9.27;;;;;;;17.60;65.51;100033.72;4855303;29;20046;-79
2022/08/03 02:11:05;;;;;;;16.90;8.73;;;;;;;17.55;65.37;100011.94;4858877;29;20102;-80
2022/08/03 02:13:34;;;;;;;14.27;9.10;;;;;;;17.62;65.37;100026.63;4841909;29;20046;-78
2022/08/03 02:16:04;;;;;;;14.30;8.80;;;;;;;17.63;65.22;100023.09;4856553;29;20037;-77
2022/08/03 02:18:34;;;;;;;12.30;8.77;;;;;;;17.61;65.49;100024.91;4859773;29;20060;-79
2022/08/03 02:21:03;;;;;;;14.98;8.88;;;;;;;17.66;65.57;100033.50;4858176;29;20109;-77
2022/08/03 02:23:30;;;;;;;16.42;9.63;;;;;;;17.67;65.45;100029.97;4860089;29;20109;-80
2022/08/03 02:25:59;;;;;;;15.27;9.43;;;;;;;17.70;65.18;100035.13;4861121;29;20026;-80
2022/08/03 02:28:33;;;;;;;16.50;9.10;;;;;;;17.73;65.35;100024.50;4849057;29;20045;-80
2022/08/03 02:31:03;;;;;;;21.40;10.52;;;;;;;17.79;65.21;100033.94;4849641;29;20047;-79
2022/08/03 02:33:37;;;;;;;18.63;10.10;;;;;;;17.85;65.44;100040.75;4864881;29;20022;-78
2022/08/03 02:36:05;;;;;;;20.33;10.10;;;;;;;17.95;65.29;100030.75;4864635;29;20030;-77
2022/08/03 02:38:35;;;;;;;17.25;9.73;;;;;;;17.99;64.71;100035.88;4854347;29;20459;-77
2022/08/03 02:41:07;;;;;;;20.95;9.32;;;;;;;18.02;65.20;100033.13;4844036;29;20540;-79
2022/08/03 02:43:36;;;;;;;21.42;10.30;;;;;;;18.14;64.94;100044.16;4841688;29;20434;-78
2022/08/03 02:46:04;;;;;;;24.48;9.52;;;;;;;18.16;65.10;100031.78;4826498;29;20407;-82
2022/08/03 02:48:33;;;;;;;19.38;10.27;;;;;;;18.19;64.57;100034.31;4825930;29;20491;-79
2022/08/03 02:51:01;;;;;;;15.55;9.00;;;;;;;18.24;64.79;100035.00;4841896;29;20077;-81
2022/08/03 02:53:29;;;;;;;12.40;9.27;;;;;;;18.26;64.74;100038.44;4846134;29;20140;-80
2022/08/03 02:55:57;;;;;;;11.50;8.10;;;;;;;18.39;64.77;100043.25;4845409;29;20073;-78
2022/08/03 02:58:24;;;;;;;12.60;8.30;;;;;;;18.44;64.38;100042.16;4843363;29;20054;-79
2022/08/03 03:00:52;;;;;;;12.20;7.95;;;;;;;18.50;64.52;100044.56;4843778;29;20090;-79
2022/08/03 03:03:19;;;;;;;17.75;8.20;;;;;;;18.62;64.21;100047.63;4825360;29;20046;-78
2022/08/03 03:05:47;;;;;;;12.27;7.70;;;;;;;18.65;63.84;100040.47;4841246;29;20103;-81
2022/08/03 03:08:19;;;;;;;15.52;8.30;;;;;;;18.76;63.69;100039.19;4825864;29;20045;-82
2022/08/03 03:10:46;;;;;;;10.40;7.68;;;;;;;18.79;63.51;100041.72;4824722;29;20625;-79
2022/08/03 03:13:15;;;;;;;9.82;7.72;;;;;;;18.79;63.54;100042.56;4839626;29;20065;-80
2022/08/03 03:15:43;;;;;;;9.63;7.00;;;;;;;18.88;63.42;100051.88;4840237;29;20161;-83
2022/08/03 03:18:10;;;;;;;8.57;7.18;;;;;;;18.85;63.15;100035.34;4842230;29;20053;-81
2022/08/03 03:20:39;;;;;;;8.98;7.07;;;;;;;18.93;62.93;100038.53;4842283;29;20038;-81
2022/08/03 03:23:08;;;;;;;8.63;7.35;;;;;;;19.10;62.68;100051.94;4850076;29;20527;-81
2022/08/03 03:25:35;;;;;;;9.98;7.85;;;;;;;19.06;62.54;100031.88;4836016;29;20038;-82
2022/08/03 03:28:02;;;;;;;11.70;8.00;;;;;;;19.33;62.42;100065.09;4836504;29;20112;-84
2022/08/03 03:30:29;;;;;;;8.48;7.63;;;;;;;19.17;62.00;100026.16;4828098;29;20582;-81
2022/08/03 03:32:57;;;;;;;11.20;7.82;;;;;;;19.51;61.62;100066.13;4840761;29;20049;-81
2022/08/03 03:35:25;;;;;;;12.30;6.93;;;;;;;19.42;61.55;100040.97;4841240;29;20094;-79
2022/08/03 03:37:51;;;;;;;9.15;7.45;;;;;;;19.66;60.90;100067.25;4845343;29;20054;-82
2022/08/03 03:40:18;;;;;;;8.60;7.63;;;;;;;19.72;60.76;100065.22;4841738;29;20131;-78
2022/08/03 03:42:45;;;;;;;14.00;7.45;;;;;;;19.78;60.61;100055.31;4844476;29;20128;-81
2022/08/03 03:45:12;;;;;;;8.70;7.30;;;;;;;19.67;60.25;100035.50;4829484;29;20030;-82
2022/08/03 03:47:38;;;;;;;10.13;6.97;;;;;;;19.92;60.27;100066.16;4829516;29;20466;-81
2022/08/03 03:50:07;;;;;;;9.65;7.10;;;;;;;20.00;60.02;100076.38;4844626;29;20057;-80
2022/08/03 03:52:33;;;;;;;8.02;6.97;;;;;;;20.00;59.90;100060.53;4842818;29;20050;-80
2022/08/03 03:54:59;;;;;;;13.50;7.45;;;;;;;19.89;59.62;100031.13;4840521;29;20067;-78
2022/08/03 03:57:26;;;;;;;10.88;7.10;;;;;;;20.04;59.52;100054.19;4842050;29;20053;-81
2022/08/03 03:59:52;;;;;;;11.43;7.00;;;;;;;19.94;59.39;100037.91;4840515;29;20079;-81
2022/08/03 04:02:19;;;;;;;11.63;7.25;;;;;;;20.00;59.53;100034.13;4825991;29;20144;-79
2022/08/03 04:11:00;;;;;;;10.05;8.10;;;;;;;20.43;58.42;100021.59;4853778;29;20046;-80
2022/08/03 04:13:54;;;;;;;12.35;7.60;;;;;;;21.05;58.03;100076.94;4827185;29;20098;-78
2022/08/03 04:16:34;;;;;;;7.50;6.32;;;;;;;21.35;57.54;100073.69;4826994;29;20057;-79
2022/08/03 04:19:04;;;;;;;10.52;7.28;;;;;;;21.38;56.80;100030.34;4824505;29;20041;-79
2022/08/03 04:21:39;;;;;;;9.55;7.32;;;;;;;21.87;56.58;100073.81;4839420;29;20124;-80
2022/08/03 04:24:07;;;;;;;;;;;;;;;22.07;56.30;100072.78;4839619;29;20038;-80
2022/08/03 04:26:37;;;;;;;11.52;6.43;;;;;;;22.35;55.33;100069.50;4840401;29;20361;-82
2022/08/03 04:29:04;;;;;;;9.60;7.40;;;;;;;22.30;54.81;100033.59;4839781;29;20523;-78
2022/08/03 04:31:34;;;;;;;9.40;7.40;;;;;;;22.74;54.43;100077.19;4839743;29;20533;-81
2022/08/03 04:34:01;;;;;;;8.07;6.53;;;;;;;22.87;53.98;100052.53;4844439;29;20053;-81
2022/08/03 04:36:32;;;;;;;9.13;7.05;;;;;;;23.07;53.21;100050.56;4842600;29;20080;-79
2022/08/03 04:39:05;;;;;;;6.97;6.28;;;;;;;23.34;53.13;100070.34;4839660;29;20261;-81
2022/08/03 04:41:34;;;;;;;8.20;6.50;;;;;;;23.36;52.69;100032.13;4841161;29;20037;-81
2022/08/03 04:44:01;;;;;;;7.30;6.60;;;;;;;23.64;52.29;100061.50;4849225;29;20061;-79
2022/08/03 04:46:37;;;;;;;8.60;7.18;;;;;;;23.61;51.67;100036.81;4853074;29;20128;-81
2022/08/03 04:49:05;;;;;;;8.90;7.20;;;;;;;23.78;51.40;100032.31;4843931;29;20058;-80
2022/08/03 04:51:37;;;;;;;7.90;7.10;;;;;;;24.16;50.58;100061.03;4844933;29;20081;-81
2022/08/03 04:54:04;;;;;;;13.63;7.00;;;;;;;24.17;50.50;100024.66;4844995;29;20533;-83
2022/08/03 04:56:30;;;;;;;11.63;8.05;;;;;;;24.57;49.98;100072.69;4844223;29;20053;-82
2022/08/03 04:58:56;;;;;;;8.73;7.10;;;;;;;24.43;49.71;100041.66;4842389;29;20109;-84
2022/08/03 05:01:22;;;;;;;11.90;7.43;;;;;;;24.59;49.04;100049.53;4843480;29;20045;-82
2022/08/03 05:03:49;;;;;;;11.57;6.63;;;;;;;24.69;49.46;100040.94;4843908;29;20530;-83
2022/08/03 05:06:15;;;;;;;10.20;7.10;;;;;;;25.13;48.87;100070.97;4812167;29;20128;-80
2022/08/03 05:08:41;;;;;;;11.20;6.97;;;;;;;25.22;48.33;100046.41;4814069;29;20140;-82
2022/08/03 05:11:07;;;;;;;11.40;7.70;;;;;;;25.23;48.26;100034.78;4844985;29;20044;-83
2022/08/03 05:13:33;;;;;;;9.15;7.20;;;;;;;25.47;48.25;100061.63;4844651;29;20038;-81
2022/08/03 05:15:59;;;;;;;8.95;7.78;;;;;;;25.50;47.26;100049.91;4858323;29;20177;-82
2022/08/03 05:18:26;;;;;;;13.00;8.13;;;;;;;25.34;47.02;100026.94;4843745;29;20056;-81
2022/08/03 05:20:52;;;;;;;13.07;8.20;;;;;;;25.65;46.40;100059.50;4845002;29;20415;-83
2022/08/03 05:23:18;;;;;;;12.23;8.07;;;;;;;26.03;46.35;100015.19;4851239;29;20054;-82
2022/08/03 05:25:45;;;;;;;12.75;7.18;;;;;;;26.63;45.46;100041.25;4861561;29;20129;-83
2022/08/03 05:28:11;;;;;;;12.32;7.38;;;;;;;26.78;44.77;100024.09;4863433;29;20218;-82
2022/08/03 05:30:38;;;;;;;10.60;6.82;;;;;;;27.00;43.79;100043.91;4851285;29;20044;-82
2022/08/03 05:33:06;;;;;;;12.15;6.75;;;;;;;26.90;44.20;100068.63;4866828;29;20044;-81
2022/08/03 05:35:34;;;;;;;17.45;6.93;;;;;;;26.97;44.02;100068.16;4844959;29;20061;-81
2022/08/03 05:38:02;;;;;;;14.02;6.60;;;;;;;27.10;43.35;100044.94;4847843;29;20041;-80
2022/08/03 05:40:29;;;;;;;11.20;6.70;;;;;;;27.86;42.93;100076.66;4844941;29;20121;-80
2022/08/03 05:42:55;;;;;;;12.82;6.65;;;;;;;28.83;41.81;100032.53;4843746;29;20506;-80
2022/08/03 05:45:22;;;;;;;8.55;5.75;;;;;;;30.89;39.90;100054.31;4845374;29;20054;-80
2022/08/03 05:47:49;;;;;;;15.23;6.28;;;;;;;32.43;37.11;100036.38;4841211;29;20046;-80
2022/08/03 05:50:17;;;;;;;10.20;6.10;;;;;;;34.19;34.90;100045.81;4842308;29;20140;-80
2022/08/03 05:52:43;;;;;;;9.20;6.25;;;;;;;35.34;32.73;100020.91;4842163;29;20160;-81
2022/08/03 05:55:11;;;;;;;9.45;5.75;;;;;;;36.70;31.15;100034.53;4841202;29;20065;-80
2022/08/03 05:57:39;;;;;;;9.30;5.50;;;;;;;37.92;28.90;100042.88;4842461;29;20123;-81
2022/08/03 06:00:07;;;;;;;8.88;5.60;;;;;;;38.26;28.27;100044.16;4842259;29;20038;-82
2022/08/03 06:02:38;;;;;;;8.70;5.70;;;;;;;38.68;27.15;100052.63;4842666;29;20140;-81
2022/08/03 06:05:07;;;;;;;14.43;6.63;;;;;;;38.62;25.79;100021.63;4851042;29;20034;-80
2022/08/03 06:07:34;;;;;;;7.93;5.63;;;;;;;39.22;25.75;100048.56;4831105;29;20454;-81
2022/08/03 06:10:01;;;;;;;12.05;5.88;;;;;;;40.07;24.51;100053.16;4847090;29;20124;-81
2022/08/03 06:12:30;;;;;;;8.23;5.60;;;;;;;41.01;23.94;100042.59;4844097;29;20115;-80
2022/08/03 06:15:00;;;;;;;14.35;6.30;;;;;;;41.53;22.67;100048.31;4827051;29;20042;-81
2022/08/03 06:17:29;;;;;;;11.15;5.22;;;;;;;42.38;21.87;100052.09;4843261;29;20171;-83
2022/08/03 06:19:56;;;;;;;10.83;5.20;;;;;;;43.37;21.17;100044.53;4827079;29;20094;-81
2022/08/03 06:22:22;;;;;;;10.93;4.72;;;;;;;44.36;19.99;100035.47;4827408;29;20306;-81
2022/08/03 06:24:48;;;;;;;7.38;5.28;;;;;;;45.40;18.60;100033.44;4843282;29;20042;-80
2022/08/03 06:27:14;;;;;;;13.57;5.10;;;;;;;45.83;18.63;100023.97;4844258;29;20183;-82
2022/08/03 06:29:40;;;;;;;10.20;5.20;;;;;;;46.59;17.56;100022.19;4844041;29;20077;-81
2022/08/03 06:32:06;;;;;;;12.02;5.20;;;;;;;46.96;16.38;100029.19;4844409;29;20045;-83
2022/08/03 06:34:32;;;;;;;9.27;4.78;;;;;;;47.44;15.95;100043.41;4844039;29;20575;-81
2022/08/03 06:36:58;;;;;;;9.32;5.30;;;;;;;47.04;16.32;100037.84;4842965;29;20046;-81
2022/08/03 06:39:25;;;;;;;9.15;5.15;;;;;;;46.96;15.69;100016.25;4827159;29;20046;-81
2022/08/03 06:41:52;;;;;;;9.90;5.32;;;;;;;47.74;15.63;100044.97;4846186;29;20071;-81
2022/08/03 06:44:18;;;;;;;9.88;4.90;;;;;;;48.15;14.84;100037.22;4849193;29;20045;-81
2022/08/03 06:46:44;;;;;;;7.50;5.13;;;;;;;48.25;15.24;100045.59;4848369;29;20216;-80
2022/08/03 06:49:11;;;;;;;9.93;5.20;;;;;;;48.15;15.19;100036.38;4848974;29;20136;-81
2022/08/03 06:51:37;;;;;;;10.90;5.30;;;;;;;48.33;14.68;100054.53;4848100;29;20072;-80
2022/08/03 06:54:03;;;;;;;7.03;4.80;;;;;;;48.98;14.13;100024.25;4849642;29;20049;-82
2022/08/03 06:56:29;;;;;;;9.60;4.38;;;;;;;49.95;13.26;100052.75;4848953;29;20127;-82
2022/08/03 06:58:55;;;;;;;9.25;5.38;;;;;;;50.15;13.05;100021.59;4854499;29;20737;-81
2022/08/03 07:01:22;;;;;;;8.73;5.07;;;;;;;50.09;13.49;100051.16;4852596;29;20569;-83
2022/08/03 07:03:49;;;;;;;11.70;5.00;;;;;;;50.12;13.12;100022.94;4852516;29;20038;-81
2022/08/03 07:06:15;;;;;;;6.45;4.68;;;;;;;50.98;12.41;100054.94;4845441;29;20056;-82
2022/08/03 07:08:44;;;;;;;10.55;4.60;;;;;;;51.49;11.88;100035.47;4841530;29;20045;-82
2022/08/03 07:11:13;;;;;;;9.13;4.72;;;;;;;51.71;11.97;100048.16;4843621;29;20056;-81
2022/08/03 07:13:40;;;;;;;;;;;;;;;52.14;11.73;100055.19;4842000;29;20045;-82
2022/08/03 07:16:06;;;;;;;9.07;6.18;;;;;;;51.58;11.53;100034.91;4842424;29;19925;-82
2022/08/03 07:18:39;;;;;;;7.07;4.63;;;;;;;51.65;10.65;100029.88;4841953;29;20502;-83
2022/08/03 07:21:07;;;;;;;8.48;5.25;;;;;;;50.55;11.57;100047.69;4847840;29;20038;-82
2022/08/03 07:23:34;;;;;;;6.87;4.90;;;;;;;49.92;11.38;100039.47;4844217;29;20052;-82
2022/08/03 07:26:00;;;;;;;5.97;4.43;;;;;;;50.03;11.90;100055.00;4842099;29;20049;-82
2022/08/03 07:28:26;;;;;;;6.47;4.45;;;;;;;50.41;11.97;100049.31;4842313;29;20045;-82
2022/08/03 07:30:53;;;;;;;11.10;5.50;;;;;;;50.48;11.93;100036.03;4840252;29;20050;-82
2022/08/03 07:33:19;;;;;;;9.82;4.70;;;;;;;51.43;10.55;100044.91;4840557;29;20046;-82
2022/08/03 07:35:45;;;;;;;7.65;4.88;;;;;;;51.23;10.29;100038.31;4831079;29;20415;-81
2022/08/03 07:38:11;;;;;;;7.55;4.43;;;;;;;50.26;11.28;100030.75;4845469;29;20042;-80
2022/08/03 07:40:38;;;;;;;8.40;4.00;;;;;;;50.21;11.57;100028.78;4842107;29;20045;-82
2022/08/03 07:43:04;;;;;;;6.65;4.72;;;;;;;50.19;10.65;100048.44;4844269;29;20069;-81
2022/08/03 07:45:31;;;;;;;9.38;4.97;;;;;;;49.75;11.03;100032.19;4845300;29;20098;-81
2022/08/03 07:48:00;;;;;;;7.15;4.93;;;;;;;49.81;10.23;100025.63;4841733;29;20050;-82
2022/08/03 07:50:27;;;;;;;10.65;5.60;;;;;;;50.63;10.45;100055.47;4843145;29;20060;-82
2022/08/03 07:52:54;;;;;;;7.78;6.70;;;;;;;49.18;11.03;100031.03;4826294;29;20092;-82
2022/08/03 07:55:44;;;;;;;9.82;7.13;;;;;;;48.28;11.99;100004.81;4841685;29;20077;-82
2022/08/03 07:58:39;;;;;;;10.23;5.20;;;;;;;48.68;11.76;100009.06;4848687;29;20053;-84
2022/08/03 08:01:08;;;;;;;10.10;4.47;;;;;;;49.23;11.56;100017.25;4862168;29;20050;-84
2022/08/03 08:03:34;;;;;;;8.43;4.60;;;;;;;50.00;10.58;100017.66;4841385;29;20042;-84
2022/08/03 08:06:04;;;;;;;7.60;4.30;;;;;;;49.58;11.39;100038.75;4843061;29;20070;-81
2022/08/03 08:08:30;;;;;;;7.47;4.07;;;;;;;49.68;11.10;100051.78;4842342;29;20554;-82
2022/08/03 08:10:56;;;;;;;4.32;3.85;;;;;;;49.03;11.20;100051.03;4841448;29;20158;-82
2022/08/03 08:13:24;;;;;;;6.40;3.90;;;;;;;49.90;10.53;100053.56;4841322;29;20132;-83
2022/08/03 08:15:50;;;;;;;7.80;3.90;;;;;;;50.38;10.59;100038.81;4824906;29;20077;-83
2022/08/03 08:18:24;;;;;;;7.25;3.92;;;;;;;49.95;10.10;100034.25;4841130;29;20054;-80
2022/08/03 08:20:51;;;;;;;4.57;4.05;;;;;;;49.05;10.67;100052.47;4828699;29;20046;-81
2022/08/03 08:23:23;;;;;;;4.28;3.85;;;;;;;48.84;10.74;100049.53;4844833;29;20460;-82
2022/08/03 08:25:54;;;;;;;5.53;4.07;;;;;;;48.13;10.82;100041.31;4846083;29;20070;-80
2022/08/03 08:28:21;;;;;;;4.80;3.88;;;;;;;46.29;11.83;100056.25;4830000;29;20426;-83
2022/08/03 08:30:48;;;;;;;8.35;3.85;;;;;;;46.21;11.98;100053.91;4814185;29;20073;-82
2022/08/03 08:33:54;;;;;;;5.20;3.60;;;;;;;48.06;11.74;100033.25;4837156;29;20050;-83
2022/08/03 08:36:20;;;;;;;8.25;3.80;;;;;;;48.93;11.00;100058.16;4815703;29;20057;-82
2022/08/03 08:38:46;;;;;;;5.25;3.85;;;;;;;49.19;10.24;100040.97;4845833;29;20048;-82
2022/08/03 08:41:13;;;;;;;4.90;3.97;;;;;;;48.00;11.15;100046.13;4831208;29;20037;-82
2022/08/03 08:43:41;;;;;;;4.93;3.67;;;;;;;47.01;11.45;100043.84;4846641;29;20049;-81
2022/08/03 08:46:11;;;;;;;4.00;3.33;;;;;;;47.17;11.44;100033.06;4847367;29;20148;-83
2022/08/03 08:48:43;;;;;;;5.80;3.70;;;;;;;48.07;11.19;100029.41;4850061;29;20069;-81
2022/08/03 08:51:12;;;;;;;7.68;3.70;;;;;;;49.21;10.72;100024.97;4845996;29;20621;-83
2022/08/03 08:53:42;;;;;;;4.88;3.47;;;;;;;49.22;10.07;100045.97;4845098;29;20050;-82
2022/08/03 08:56:15;;;;;;;6.53;3.92;;;;;;;49.30;10.55;100040.78;4846125;29;20046;-82
2022/08/03 08:58:46;;;;;;;6.88;3.60;;;;;;;49.74;10.17;100038.81;4849989;29;20583;-83
2022/08/03 09:01:12;;;;;;;5.00;3.30;;;;;;;50.15;10.37;100054.78;4856863;29;20041;-81
2022/08/03 09:03:41;;;;;;;5.97;3.50;;;;;;;50.43;9.85;100047.13;4863706;29;20049;-82
2022/08/03 09:06:07;;;;;;;3.92;3.50;;;;;;;50.23;9.67;100032.13;4863871;29;20114;-81
2022/08/03 09:08:34;;;;;;;4.88;3.72;;;;;;;49.49;10.54;100031.25;4864925;29;20079;-84
2022/08/03 09:11:03;;;;;;;4.75;3.58;;;;;;;49.83;10.22;100064.03;4866171;29;20094;-83
2022/08/03 09:13:29;;;;;;;4.30;3.22;;;;;;;48.69;10.28;100035.59;4864955;29;20056;-81
2022/08/03 09:16:28;;;;;;;5.38;3.70;;;;;;;48.38;10.24;100063.69;4855241;29;20110;-82
2022/08/03 09:18:54;;;;;;;3.67;3.10;;;;;;;49.09;9.89;100041.75;4811041;29;20122;-84
2022/08/03 09:21:28;;;;;;;8.48;3.05;;;;;;;48.09;10.64;100060.31;4842689;29;20113;-85
2022/08/03 09:23:57;;;;;;;6.55;3.53;;;;;;;47.72;10.66;100055.41;4842974;29;20050;-83
2022/08/03 09:26:28;;;;;;;4.60;3.10;;;;;;;47.62;10.23;100059.69;4843923;29;20542;-84
2022/08/03 09:29:03;;;;;;;3.90;3.05;;;;;;;48.61;10.27;100058.13;4843726;29;20109;-81
2022/08/03 09:31:41;;;;;;;9.80;2.92;;;;;;;47.03;10.97;100033.44;4843642;29;20590;-84
2022/08/03 09:34:09;;;;;;;6.95;3.15;;;;;;;47.27;11.05;100038.78;4843685;29;20582;-83
2022/08/03 09:36:56;;;;;;;4.05;3.15;;;;;;;48.33;10.48;100043.50;4843738;29;20125;-84
2022/08/03 09:39:30;;;;;;;4.47;3.38;;;;;;;48.49;10.16;100064.63;4852408;29;20529;-81
2022/08/03 09:42:07;;;;;;;7.95;3.55;;;;;;;46.78;10.99;100028.31;4847865;29;20046;-82
2022/08/03 09:44:42;;;;;;;5.35;3.38;;;;;;;46.53;11.69;100051.53;4842751;29;20049;-83
2022/08/03 09:47:13;;;;;;;3.00;2.80;;;;;;;46.89;11.33;100027.41;4843545;29;20371;-82
2022/08/03 09:49:41;;;;;;;3.90;3.42;;;;;;;46.41;11.67;100054.31;4815383;29;20053;-82
2022/08/03 09:52:21;;;;;;;7.03;3.25;;;;;;;45.87;12.36;100035.34;4851920;29;20050;-81
2022/08/03 09:54:51;;;;;;;5.68;3.90;;;;;;;46.56;12.29;100055.69;4834043;29;20110;-82
2022/08/03 09:57:22;;;;;;;5.07;3.55;;;;;;;45.88;12.47;100021.34;4847439;29;20060;-82
2022/08/03 09:59:50;;;;;;;4.40;2.92;;;;;;;46.39;11.92;100055.63;4828677;29;20054;-83
2022/08/03 10:02:24;;;;;;;3.92;3.40;;;;;;;47.23;11.46;100026.59;4844751;29;20045;-83
2022/08/03 10:04:51;;;;;;;6.30;3.45;;;;;;;47.78;11.29;100041.44;4844353;29;20037;-81
2022/08/03 10:07:20;;;;;;;4.57;3.60;;;;;;;47.71;11.59;100038.03;4844764;29;20049;-86
2022/08/03 10:09:58;;;;;;;6.30;3.40;;;;;;;47.63;11.66;100035.72;4843851;29;20070;-85
2022/08/03 10:12:25;;;;;;;4.18;3.40;;;;;;;47.56;11.31;100057.91;4813212;29;20037;-80
2022/08/03 10:14:53;;;;;;;6.15;3.72;;;;;;;48.14;11.07;100070.53;4842664;29;20042;-82
2022/08/03 10:17:22;;;;;;;6.65;3.60;;;;;;;47.55;10.81;100028.72;4843041;29;20050;-86
2022/08/03 10:19:52;;;;;;;5.07;3.97;;;;;;;47.68;11.83;100038.53;4828223;29;20046;-86
2022/08/03 10:22:22;;;;;;;4.30;3.85;;;;;;;48.67;11.19;100048.78;4843854;29;20049;-84
2022/08/03 10:25:02;;;;;;;5.78;3.70;;;;;;;49.23;10.34;100053.97;4843429;29;20042;-82
2022/08/03 10:27:32;;;;;;;4.30;3.90;;;;;;;47.47;11.17;100037.41;4843863;29;20045;-84
2022/08/03 10:30:06;;;;;;;5.43;4.05;;;;;;;45.79;12.10;100032.97;4847181;29;20061;-80
2022/08/03 10:32:45;;;;;;;3.60;3.30;;;;;;;44.73;12.89;100040.84;4851123;29;20088;-81
2022/08/03 10:35:14;;;;;;;7.60;3.45;;;;;;;44.95;12.97;100043.88;4841929;29;20042;-80
2022/08/03 10:38:06;;;;;;;4.13;3.70;;;;;;;44.81;12.77;100026.78;4859162;29;20050;-82
2022/08/03 10:40:33;;;;;;;4.22;3.38;;;;;;;43.84;13.55;100055.00;4862413;29;20038;-82
2022/08/03 10:43:06;;;;;;;4.90;3.25;;;;;;;43.03;14.01;100062.03;4847926;29;20025;-82
2022/08/03 10:45:35;;;;;;;7.07;3.17;;;;;;;41.04;15.20;100031.28;4866026;29;20117;-81
2022/08/03 10:48:01;;;;;;;4.47;3.38;;;;;;;40.33;15.96;100044.31;4866759;29;20056;-82
2022/08/03 10:50:28;;;;;;;3.78;3.25;;;;;;;39.71;16.62;100063.22;4865577;29;20070;-81
2022/08/03 10:53:00;;;;;;;6.90;3.28;;;;;;;39.33;16.82;100058.09;4866686;29;20022;-84
2022/08/03 10:58:36;;;;;;;5.15;4.63;;;;;;;38.21;18.17;100062.91;4853155;29;20054;-82
2022/08/03 11:01:04;;;;;;;6.30;3.38;;;;;;;37.74;17.90;100059.50;4831810;29;20054;-82
2022/08/03 11:03:34;;;;;;;5.80;3.53;;;;;;;37.14;18.98;100043.06;4827097;29;20054;-79
2022/08/03 11:06:25;;;;;;;4.70;3.47;;;;;;;36.53;19.93;100044.63;4832939;29;20042;-82
2022/08/03 11:09:20;;;;;;;9.38;3.75;;;;;;;35.97;20.88;100061.75;4844756;29;20133;-82
2022/08/03 11:11:59;;;;;;;5.00;3.80;;;;;;;35.90;21.00;100068.84;4808309;29;20054;-83
2022/08/03 11:14:26;;;;;;;6.57;3.67;;;;;;;35.31;20.82;99999.59;4821525;29;20054;-90
2022/08/03 11:17:16;;;;;;;5.53;3.40;;;;;;;35.59;21.24;100059.59;4813810;29;20042;-87
2022/08/03 11:20:04;;;;;;;5.63;3.80;;;;;;;35.47;21.20;100038.50;4814435;29;20103;-85
2022/08/03 11:23:27;;;;;;;7.20;3.50;;;;;;;35.26;22.31;100013.66;4834825;29;20050;-83
2022/08/03 11:26:50;;;;;;;4.57;3.85;;;;;;;35.60;22.33;100063.19;4828092;29;20065;-86
2022/08/03 11:30:35;;;;;;;6.00;4.13;;;;;;;35.07;22.36;100017.53;4756221;30;20044;-86
2022/08/03 11:33:03;;;;;;;4.25;3.38;;;;;;;35.05;22.05;100032.22;4843210;29;20048;-86
2022/08/03 11:35:32;;;;;;;6.30;3.63;;;;;;;35.01;22.15;100050.63;4834886;29;20043;-83
2022/08/03 11:38:45;;;;;;;5.43;3.85;;;;;;;35.00;22.49;100067.84;4830257;29;20053;-83
2022/08/03 11:41:53;;;;;;;10.30;4.05;;;;;;;34.88;22.80;100071.88;4822797;29;20311;-83
2022/08/03 11:44:45;;;;;;;5.90;4.20;;;;;;;34.48;22.74;100002.22;4827085;29;20045;-82
2022/08/03 11:47:38;;;;;;;5.78;3.65;;;;;;;34.82;22.83;100063.41;4817343;29;20059;-82